createdAt,value
2022-11-27T00:12:57.486Z,9.50
2022-11-27T00:26:57.556Z,9.00
2022-11-27T00:40:57.555Z,8.00
2022-11-27T00:54:57.652Z,7.40
2022-11-27T01:08:57.663Z,7.40
2022-11-27T01:22:57.729Z,6.90
2022-11-27T01:36:57.753Z,6.20
2022-11-27T01:50:57.900Z,6.10
2022-11-27T02:04:58.045Z,5.50
2022-11-27T02:18:58.191Z,5.10
2022-11-27T02:32:58.208Z,5.00
2022-11-27T02:46:58.182Z,4.30
2022-11-27T03:00:58.149Z,3.80
2022-11-27T03:14:58.182Z,3.60
2022-11-27T03:28:58.181Z,3.40
2022-11-27T03:42:58.193Z,2.90
2022-11-27T03:56:58.234Z,2.70
2022-11-27T04:10:58.215Z,2.50
2022-11-27T04:24:58.247Z,2.50
2022-11-27T04:38:58.232Z,2.10
2022-11-27T04:52:58.253Z,2.05
2022-11-27T05:06:58.222Z,1.95
2022-11-27T05:20:58.243Z,1.85
2022-11-27T05:34:58.263Z,1.90
2022-11-27T05:48:58.305Z,1.60
2022-11-27T06:02:58.528Z,1.50
2022-11-27T06:16:58.470Z,1.50
2022-11-27T06:31:58.504Z,2.10
2022-11-27T06:46:58.430Z,2.40
2022-11-27T07:01:58.473Z,2.50
2022-11-27T07:16:58.541Z,2.70
2022-11-27T07:32:58.473Z,2.40
2022-11-27T07:47:58.504Z,2.50
2022-11-27T08:02:58.688Z,2.70
2022-11-27T08:17:58.661Z,2.80
2022-11-27T08:32:58.684Z,4.40
2022-11-27T08:47:58.667Z,4.30
2022-11-27T09:02:58.679Z,4.60
2022-11-27T09:17:58.690Z,4.40
2022-11-27T09:32:58.714Z,4.30
2022-11-27T09:47:58.738Z,4.10
2022-11-27T10:02:58.806Z,4.00
2022-11-27T10:17:58.757Z,4.00
2022-11-27T10:32:58.809Z,3.90
2022-11-27T10:47:59.024Z,3.20
2022-11-27T11:02:59.057Z,3.10
2022-11-27T11:17:59.079Z,3.20
2022-11-27T11:32:59.074Z,2.90
2022-11-27T11:47:59.074Z,2.80
2022-11-27T12:02:59.087Z,2.50
2022-11-27T12:17:59.214Z,2.50
2022-11-27T12:33:59.233Z,2.70
2022-11-27T12:48:59.225Z,2.50
2022-11-27T13:03:59.256Z,2.10
2022-11-27T13:18:59.251Z,2.10
2022-11-27T13:33:59.241Z,1.90
2022-11-27T13:48:59.263Z,1.90
2022-11-27T14:03:59.302Z,2.00
2022-11-27T14:18:59.478Z,1.70
2022-11-27T14:34:14.666Z,1.70
2022-11-27T14:48:59.482Z,1.75
2022-11-27T15:03:59.610Z,1.70
2022-11-27T15:19:59.592Z,1.80
2022-11-27T15:34:59.541Z,1.60
2022-11-27T15:49:59.619Z,1.70
2022-11-27T16:05:59.745Z,2.80
2022-11-27T16:12:52.870Z,2.50
2022-11-27T16:26:53.062Z,3.00
2022-11-27T16:40:53.149Z,3.70
2022-11-27T16:54:53.931Z,4.10
2022-11-27T17:08:53.745Z,3.90
2022-11-27T17:22:53.747Z,3.60
2022-11-27T17:36:53.827Z,3.80
2022-11-27T17:50:53.802Z,3.80
2022-11-27T18:04:53.925Z,4.00
2022-11-27T18:18:54.080Z,3.80
2022-11-27T18:32:54.072Z,4.30
2022-11-27T18:46:54.033Z,4.70
2022-11-27T19:00:54.052Z,49.30
2022-11-27T19:14:54.059Z,61.30
2022-11-27T19:28:54.067Z,63.50
2022-11-27T19:42:58.027Z,57.90
2022-11-27T19:56:54.251Z,54.00
2022-11-27T20:10:54.337Z,53.70
2022-11-27T20:25:17.588Z,52.10
2022-11-27T20:38:54.328Z,48.80
2022-11-27T20:52:54.490Z,45.80
2022-11-27T21:06:54.471Z,43.10
2022-11-27T21:20:54.585Z,43.70
2022-11-27T21:34:54.593Z,43.10
2022-11-27T21:48:54.670Z,40.00
2022-11-27T22:02:54.786Z,38.60
2022-11-27T22:16:54.621Z,35.80
2022-11-27T22:30:54.702Z,33.50
2022-11-27T22:44:54.679Z,30.00
2022-11-27T22:59:06.245Z,27.30
2022-11-27T23:12:54.799Z,25.60
2022-11-27T23:26:54.758Z,24.30
2022-11-27T23:40:54.860Z,21.10
2022-11-27T23:54:54.814Z,20.60
